sensor_id;sensor_type;location;lat;lon;timestamp;P1;durP1;ratioP1;P2;durP2;ratioP2
15712;SDS011;7957;51.608;6.916;2023-04-01T00:00:36;5.77;;;2.40;;
15712;SDS011;7957;51.608;6.916;2023-04-01T00:03:03;5.10;;;2.30;;
15712;SDS011;7957;51.608;6.916;2023-04-01T00:05:30;6.90;;;3.20;;
15712;SDS011;7957;51.608;6.916;2023-04-01T00:07:57;5.03;;;2.17;;
15712;SDS011;7957;51.608;6.916;2023-04-01T00:10:25;4.93;;;2.33;;
15712;SDS011;7957;51.608;6.916;2023-04-01T00:12:52;5.40;;;2.30;;
15712;SDS011;7957;51.608;6.916;2023-04-01T00:15:20;5.87;;;2.40;;
15712;SDS011;7957;51.608;6.916;2023-04-01T00:17:49;6.90;;;2.53;;
15712;SDS011;7957;51.608;6.916;2023-04-01T00:20:16;6.53;;;2.97;;
15712;SDS011;7957;51.608;6.916;2023-04-01T00:22:43;5.50;;;2.60;;
15712;SDS011;7957;51.608;6.916;2023-04-01T00:25:10;5.03;;;2.30;;
15712;SDS011;7957;51.608;6.916;2023-04-01T00:27:36;3.47;;;2.20;;
15712;SDS011;7957;51.608;6.916;2023-04-01T00:30:04;5.00;;;2.40;;
15712;SDS011;7957;51.608;6.916;2023-04-01T00:32:32;5.67;;;2.50;;
15712;SDS011;7957;51.608;6.916;2023-04-01T00:35:00;4.07;;;2.00;;
15712;SDS011;7957;51.608;6.916;2023-04-01T00:37:28;4.17;;;2.13;;
15712;SDS011;7957;51.608;6.916;2023-04-01T00:39:55;5.70;;;2.60;;
15712;SDS011;7957;51.608;6.916;2023-04-01T00:42:22;5.77;;;2.40;;
15712;SDS011;7957;51.608;6.916;2023-04-01T00:44:51;5.90;;;2.30;;
15712;SDS011;7957;51.608;6.916;2023-04-01T00:47:19;4.57;;;2.57;;
15712;SDS011;7957;51.608;6.916;2023-04-01T00:49:48;4.10;;;2.43;;
15712;SDS011;7957;51.608;6.916;2023-04-01T00:52:19;5.47;;;2.43;;
15712;SDS011;7957;51.608;6.916;2023-04-01T00:54:49;4.47;;;2.47;;
15712;SDS011;7957;51.608;6.916;2023-04-01T00:57:21;3.70;;;2.30;;
15712;SDS011;7957;51.608;6.916;2023-04-01T00:59:52;5.60;;;2.50;;
15712;SDS011;7957;51.608;6.916;2023-04-01T01:02:21;3.77;;;2.40;;
15712;SDS011;7957;51.608;6.916;2023-04-01T01:04:48;4.30;;;1.97;;
15712;SDS011;7957;51.608;6.916;2023-04-01T01:07:20;8.33;;;2.50;;
15712;SDS011;7957;51.608;6.916;2023-04-01T01:09:56;4.43;;;2.37;;
15712;SDS011;7957;51.608;6.916;2023-04-01T01:12:29;4.40;;;2.37;;
15712;SDS011;7957;51.608;6.916;2023-04-01T01:15:02;4.97;;;2.20;;
15712;SDS011;7957;51.608;6.916;2023-04-01T01:17:38;4.20;;;2.17;;
15712;SDS011;7957;51.608;6.916;2023-04-01T01:20:15;3.47;;;2.07;;
15712;SDS011;7957;51.608;6.916;2023-04-01T01:23:06;4.20;;;2.30;;
15712;SDS011;7957;51.608;6.916;2023-04-01T01:25:57;4.33;;;2.47;;
15712;SDS011;7957;51.608;6.916;2023-04-01T01:28:36;4.90;;;2.17;;
15712;SDS011;7957;51.608;6.916;2023-04-01T01:31:16;4.30;;;2.30;;
15712;SDS011;7957;51.608;6.916;2023-04-01T01:33:51;3.40;;;2.27;;
15712;SDS011;7957;51.608;6.916;2023-04-01T01:36:30;3.40;;;2.13;;
15712;SDS011;7957;51.608;6.916;2023-04-01T01:38:59;3.77;;;2.03;;
15712;SDS011;7957;51.608;6.916;2023-04-01T01:41:27;4.60;;;2.40;;
15712;SDS011;7957;51.608;6.916;2023-04-01T01:43:57;6.40;;;2.17;;
15712;SDS011;7957;51.608;6.916;2023-04-01T01:46:26;3.67;;;2.07;;
15712;SDS011;7957;51.608;6.916;2023-04-01T01:48:55;4.40;;;2.13;;
15712;SDS011;7957;51.608;6.916;2023-04-01T01:51:23;4.07;;;2.10;;
15712;SDS011;7957;51.608;6.916;2023-04-01T01:53:54;3.50;;;1.97;;
15712;SDS011;7957;51.608;6.916;2023-04-01T01:56:22;3.17;;;1.97;;
15712;SDS011;7957;51.608;6.916;2023-04-01T01:58:53;5.40;;;2.40;;
15712;SDS011;7957;51.608;6.916;2023-04-01T02:01:24;4.33;;;2.10;;
15712;SDS011;7957;51.608;6.916;2023-04-01T02:03:53;3.70;;;2.13;;
15712;SDS011;7957;51.608;6.916;2023-04-01T02:06:23;3.07;;;1.80;;
15712;SDS011;7957;51.608;6.916;2023-04-01T02:08:55;5.03;;;2.10;;
15712;SDS011;7957;51.608;6.916;2023-04-01T02:11:25;3.93;;;2.00;;
15712;SDS011;7957;51.608;6.916;2023-04-01T02:13:55;5.13;;;2.30;;
15712;SDS011;7957;51.608;6.916;2023-04-01T02:16:27;3.50;;;1.80;;
15712;SDS011;7957;51.608;6.916;2023-04-01T02:18:58;3.43;;;2.20;;
15712;SDS011;7957;51.608;6.916;2023-04-01T02:21:28;3.10;;;2.03;;
15712;SDS011;7957;51.608;6.916;2023-04-01T02:23:59;4.10;;;1.97;;
15712;SDS011;7957;51.608;6.916;2023-04-01T02:26:27;5.50;;;2.10;;
15712;SDS011;7957;51.608;6.916;2023-04-01T02:28:55;4.43;;;2.37;;
15712;SDS011;7957;51.608;6.916;2023-04-01T02:31:24;5.13;;;2.30;;
15712;SDS011;7957;51.608;6.916;2023-04-01T02:33:51;4.63;;;2.10;;
15712;SDS011;7957;51.608;6.916;2023-04-01T02:36:19;3.87;;;2.20;;
15712;SDS011;7957;51.608;6.916;2023-04-01T02:38:46;4.20;;;2.50;;
15712;SDS011;7957;51.608;6.916;2023-04-01T02:41:17;4.30;;;2.40;;
15712;SDS011;7957;51.608;6.916;2023-04-01T02:43:44;3.87;;;2.80;;
15712;SDS011;7957;51.608;6.916;2023-04-01T02:46:10;4.23;;;2.47;;
15712;SDS011;7957;51.608;6.916;2023-04-01T02:48:37;2.77;;;2.10;;
15712;SDS011;7957;51.608;6.916;2023-04-01T02:51:04;4.33;;;2.13;;
15712;SDS011;7957;51.608;6.916;2023-04-01T02:53:31;2.70;;;2.20;;
15712;SDS011;7957;51.608;6.916;2023-04-01T02:55:58;3.30;;;2.43;;
15712;SDS011;7957;51.608;6.916;2023-04-01T02:58:26;5.73;;;2.40;;
15712;SDS011;7957;51.608;6.916;2023-04-01T03:00:53;4.43;;;2.33;;
15712;SDS011;7957;51.608;6.916;2023-04-01T03:03:20;5.60;;;2.50;;
15712;SDS011;7957;51.608;6.916;2023-04-01T03:05:47;3.80;;;2.33;;
15712;SDS011;7957;51.608;6.916;2023-04-01T03:08:14;4.80;;;2.33;;
15712;SDS011;7957;51.608;6.916;2023-04-01T03:10:41;4.43;;;2.40;;
15712;SDS011;7957;51.608;6.916;2023-04-01T03:13:08;4.67;;;2.87;;
15712;SDS011;7957;51.608;6.916;2023-04-01T03:15:36;3.93;;;2.30;;
15712;SDS011;7957;51.608;6.916;2023-04-01T03:18:03;4.97;;;2.60;;
15712;SDS011;7957;51.608;6.916;2023-04-01T03:20:30;2.50;;;2.30;;
15712;SDS011;7957;51.608;6.916;2023-04-01T03:22:57;3.40;;;2.37;;
15712;SDS011;7957;51.608;6.916;2023-04-01T03:25:24;3.90;;;2.53;;
15712;SDS011;7957;51.608;6.916;2023-04-01T03:27:51;4.70;;;2.93;;
15712;SDS011;7957;51.608;6.916;2023-04-01T03:30:18;2.43;;;2.23;;
15712;SDS011;7957;51.608;6.916;2023-04-01T03:32:47;5.27;;;2.90;;
15712;SDS011;7957;51.608;6.916;2023-04-01T03:35:14;4.17;;;3.10;;
15712;SDS011;7957;51.608;6.916;2023-04-01T03:37:42;4.30;;;3.30;;
15712;SDS011;7957;51.608;6.916;2023-04-01T03:40:09;4.80;;;3.50;;
15712;SDS011;7957;51.608;6.916;2023-04-01T03:42:37;4.87;;;3.77;;
15712;SDS011;7957;51.608;6.916;2023-04-01T03:45:04;5.57;;;4.20;;
15712;SDS011;7957;51.608;6.916;2023-04-01T03:47:31;5.93;;;5.33;;
15712;SDS011;7957;51.608;6.916;2023-04-01T03:50:00;6.63;;;5.40;;
15712;SDS011;7957;51.608;6.916;2023-04-01T03:52:27;5.00;;;4.50;;
15712;SDS011;7957;51.608;6.916;2023-04-01T03:54:54;6.77;;;5.50;;
15712;SDS011;7957;51.608;6.916;2023-04-01T03:57:21;6.67;;;5.90;;
15712;SDS011;7957;51.608;6.916;2023-04-01T03:59:48;5.77;;;5.27;;
15712;SDS011;7957;51.608;6.916;2023-04-01T04:02:15;6.03;;;5.27;;
15712;SDS011;7957;51.608;6.916;2023-04-01T04:04:42;6.20;;;5.60;;
15712;SDS011;7957;51.608;6.916;2023-04-01T04:07:11;7.23;;;5.87;;
15712;SDS011;7957;51.608;6.916;2023-04-01T04:09:38;6.43;;;5.90;;
15712;SDS011;7957;51.608;6.916;2023-04-01T04:12:05;6.83;;;5.50;;
15712;SDS011;7957;51.608;6.916;2023-04-01T04:14:32;7.00;;;6.40;;
15712;SDS011;7957;51.608;6.916;2023-04-01T04:16:59;6.60;;;5.93;;
15712;SDS011;7957;51.608;6.916;2023-04-01T04:19:30;6.27;;;5.77;;
15712;SDS011;7957;51.608;6.916;2023-04-01T04:21:58;7.43;;;6.70;;
15712;SDS011;7957;51.608;6.916;2023-04-01T04:24:27;7.10;;;6.50;;
15712;SDS011;7957;51.608;6.916;2023-04-01T04:26:54;7.60;;;6.90;;
15712;SDS011;7957;51.608;6.916;2023-04-01T04:29:21;6.97;;;6.27;;
15712;SDS011;7957;51.608;6.916;2023-04-01T04:31:48;7.33;;;6.63;;
15712;SDS011;7957;51.608;6.916;2023-04-01T04:34:15;7.10;;;6.40;;
15712;SDS011;7957;51.608;6.916;2023-04-01T04:36:43;7.30;;;6.60;;
15712;SDS011;7957;51.608;6.916;2023-04-01T04:39:10;7.23;;;6.63;;
15712;SDS011;7957;51.608;6.916;2023-04-01T04:41:38;7.40;;;6.80;;
15712;SDS011;7957;51.608;6.916;2023-04-01T04:44:06;7.63;;;6.93;;
15712;SDS011;7957;51.608;6.916;2023-04-01T04:46:33;7.60;;;6.87;;
15712;SDS011;7957;51.608;6.916;2023-04-01T04:49:01;7.20;;;6.60;;
15712;SDS011;7957;51.608;6.916;2023-04-01T04:51:28;7.93;;;7.17;;
15712;SDS011;7957;51.608;6.916;2023-04-01T04:53:55;8.30;;;7.50;;
15712;SDS011;7957;51.608;6.916;2023-04-01T04:56:22;7.10;;;6.50;;
15712;SDS011;7957;51.608;6.916;2023-04-01T04:58:51;7.40;;;6.80;;
15712;SDS011;7957;51.608;6.916;2023-04-01T05:01:18;7.67;;;6.97;;
15712;SDS011;7957;51.608;6.916;2023-04-01T05:03:45;7.80;;;7.20;;
15712;SDS011;7957;51.608;6.916;2023-04-01T05:06:13;7.33;;;6.73;;
15712;SDS011;7957;51.608;6.916;2023-04-01T05:08:41;7.53;;;6.83;;
15712;SDS011;7957;51.608;6.916;2023-04-01T05:11:09;8.30;;;7.50;;
15712;SDS011;7957;51.608;6.916;2023-04-01T05:13:38;7.20;;;6.53;;
15712;SDS011;7957;51.608;6.916;2023-04-01T05:16:09;7.80;;;7.20;;
15712;SDS011;7957;51.608;6.916;2023-04-01T05:18:40;7.30;;;6.63;;
15712;SDS011;7957;51.608;6.916;2023-04-01T05:21:08;6.83;;;6.23;;
15712;SDS011;7957;51.608;6.916;2023-04-01T05:23:36;7.23;;;6.47;;
15712;SDS011;7957;51.608;6.916;2023-04-01T05:26:06;6.83;;;6.10;;
15712;SDS011;7957;51.608;6.916;2023-04-01T05:28:35;6.17;;;5.67;;
15712;SDS011;7957;51.608;6.916;2023-04-01T05:31:03;6.07;;;5.57;;
15712;SDS011;7957;51.608;6.916;2023-04-01T05:33:32;6.67;;;6.17;;
15712;SDS011;7957;51.608;6.916;2023-04-01T05:36:05;6.27;;;5.77;;
15712;SDS011;7957;51.608;6.916;2023-04-01T05:38:33;6.60;;;6.10;;
15712;SDS011;7957;51.608;6.916;2023-04-01T05:41:00;6.40;;;5.77;;
15712;SDS011;7957;51.608;6.916;2023-04-01T05:43:28;6.93;;;6.30;;
15712;SDS011;7957;51.608;6.916;2023-04-01T05:45:55;6.30;;;5.80;;
15712;SDS011;7957;51.608;6.916;2023-04-01T05:48:23;6.70;;;6.10;;
15712;SDS011;7957;51.608;6.916;2023-04-01T05:50:51;7.50;;;6.80;;
15712;SDS011;7957;51.608;6.916;2023-04-01T05:53:18;7.40;;;6.70;;
15712;SDS011;7957;51.608;6.916;2023-04-01T05:55:45;7.00;;;6.23;;
15712;SDS011;7957;51.608;6.916;2023-04-01T05:58:12;7.03;;;6.43;;
15712;SDS011;7957;51.608;6.916;2023-04-01T06:00:40;7.30;;;6.70;;
15712;SDS011;7957;51.608;6.916;2023-04-01T06:03:07;6.60;;;6.10;;
15712;SDS011;7957;51.608;6.916;2023-04-01T06:05:37;6.83;;;6.33;;
15712;SDS011;7957;51.608;6.916;2023-04-01T06:08:10;7.40;;;6.70;;
15712;SDS011;7957;51.608;6.916;2023-04-01T06:10:40;7.10;;;6.50;;
15712;SDS011;7957;51.608;6.916;2023-04-01T06:13:20;7.03;;;6.43;;
15712;SDS011;7957;51.608;6.916;2023-04-01T06:15:56;7.40;;;6.47;;
15712;SDS011;7957;51.608;6.916;2023-04-01T06:18:36;7.00;;;6.40;;
15712;SDS011;7957;51.608;6.916;2023-04-01T06:21:21;6.93;;;6.33;;
15712;SDS011;7957;51.608;6.916;2023-04-01T06:24:01;7.47;;;6.30;;
15712;SDS011;7957;51.608;6.916;2023-04-01T06:26:43;6.87;;;6.37;;
15712;SDS011;7957;51.608;6.916;2023-04-01T06:29:23;6.43;;;5.93;;
15712;SDS011;7957;51.608;6.916;2023-04-01T06:32:20;6.97;;;6.30;;
15712;SDS011;7957;51.608;6.916;2023-04-01T06:35:14;6.30;;;5.80;;
15712;SDS011;7957;51.608;6.916;2023-04-01T06:38:03;6.23;;;5.63;;
15712;SDS011;7957;51.608;6.916;2023-04-01T06:40:50;6.97;;;6.37;;
15712;SDS011;7957;51.608;6.916;2023-04-01T06:43:32;6.30;;;5.70;;
15712;SDS011;7957;51.608;6.916;2023-04-01T06:46:08;6.20;;;5.70;;
15712;SDS011;7957;51.608;6.916;2023-04-01T06:49:00;5.90;;;5.40;;
15712;SDS011;7957;51.608;6.916;2023-04-01T06:51:35;5.80;;;5.30;;
15712;SDS011;7957;51.608;6.916;2023-04-01T06:54:10;5.47;;;4.97;;
15712;SDS011;7957;51.608;6.916;2023-04-01T06:56:44;5.43;;;5.03;;
15712;SDS011;7957;51.608;6.916;2023-04-01T06:59:20;5.57;;;5.07;;
15712;SDS011;7957;51.608;6.916;2023-04-01T07:01:51;5.50;;;5.10;;
15712;SDS011;7957;51.608;6.916;2023-04-01T07:04:22;5.63;;;5.13;;
15712;SDS011;7957;51.608;6.916;2023-04-01T07:06:53;5.23;;;4.83;;
15712;SDS011;7957;51.608;6.916;2023-04-01T07:09:22;4.97;;;4.57;;
15712;SDS011;7957;51.608;6.916;2023-04-01T07:11:55;5.07;;;4.67;;
15712;SDS011;7957;51.608;6.916;2023-04-01T07:14:27;5.03;;;4.63;;
15712;SDS011;7957;51.608;6.916;2023-04-01T07:16:58;4.80;;;4.40;;
15712;SDS011;7957;51.608;6.916;2023-04-01T07:19:31;4.93;;;4.53;;
15712;SDS011;7957;51.608;6.916;2023-04-01T07:22:03;4.50;;;4.20;;
15712;SDS011;7957;51.608;6.916;2023-04-01T07:24:33;4.60;;;4.23;;
15712;SDS011;7957;51.608;6.916;2023-04-01T07:27:05;4.50;;;4.20;;
15712;SDS011;7957;51.608;6.916;2023-04-01T07:29:35;4.33;;;4.03;;
15712;SDS011;7957;51.608;6.916;2023-04-01T07:32:16;4.67;;;4.10;;
15712;SDS011;7957;51.608;6.916;2023-04-01T07:34:55;4.37;;;4.00;;
15712;SDS011;7957;51.608;6.916;2023-04-01T07:37:34;4.03;;;3.73;;
15712;SDS011;7957;51.608;6.916;2023-04-01T07:40:14;4.27;;;3.97;;
15712;SDS011;7957;51.608;6.916;2023-04-01T07:42:53;4.10;;;3.80;;
15712;SDS011;7957;51.608;6.916;2023-04-01T07:45:36;3.77;;;3.53;;
15712;SDS011;7957;51.608;6.916;2023-04-01T07:48:15;4.00;;;3.70;;
15712;SDS011;7957;51.608;6.916;2023-04-01T07:50:50;4.17;;;3.87;;
15712;SDS011;7957;51.608;6.916;2023-04-01T07:53:25;4.20;;;3.90;;
15712;SDS011;7957;51.608;6.916;2023-04-01T07:56:03;4.37;;;3.97;;
15712;SDS011;7957;51.608;6.916;2023-04-01T07:58:38;3.80;;;3.60;;
15712;SDS011;7957;51.608;6.916;2023-04-01T08:01:13;3.73;;;3.43;;
15712;SDS011;7957;51.608;6.916;2023-04-01T08:03:51;4.40;;;4.10;;
15712;SDS011;7957;51.608;6.916;2023-04-01T08:06:31;4.00;;;3.70;;
15712;SDS011;7957;51.608;6.916;2023-04-01T08:09:04;3.73;;;3.47;;
15712;SDS011;7957;51.608;6.916;2023-04-01T08:11:43;3.93;;;3.63;;
15712;SDS011;7957;51.608;6.916;2023-04-01T08:14:25;3.77;;;3.57;;
15712;SDS011;7957;51.608;6.916;2023-04-01T08:17:01;4.63;;;4.23;;
15712;SDS011;7957;51.608;6.916;2023-04-01T08:19:35;3.63;;;3.43;;
15712;SDS011;7957;51.608;6.916;2023-04-01T08:22:15;4.20;;;3.90;;
15712;SDS011;7957;51.608;6.916;2023-04-01T08:24:46;4.00;;;3.70;;
15712;SDS011;7957;51.608;6.916;2023-04-01T08:27:17;3.77;;;3.47;;
15712;SDS011;7957;51.608;6.916;2023-04-01T08:29:49;4.37;;;4.07;;
15712;SDS011;7957;51.608;6.916;2023-04-01T08:32:22;4.60;;;4.30;;
15712;SDS011;7957;51.608;6.916;2023-04-01T08:34:56;5.10;;;4.70;;
15712;SDS011;7957;51.608;6.916;2023-04-01T08:37:28;4.80;;;4.40;;
15712;SDS011;7957;51.608;6.916;2023-04-01T08:39:59;5.10;;;4.70;;
15712;SDS011;7957;51.608;6.916;2023-04-01T08:42:41;5.53;;;5.03;;
15712;SDS011;7957;51.608;6.916;2023-04-01T08:45:29;5.57;;;5.07;;
15712;SDS011;7957;51.608;6.916;2023-04-01T08:48:17;4.77;;;4.43;;
15712;SDS011;7957;51.608;6.916;2023-04-01T08:53:59;5.47;;;5.07;;
15712;SDS011;7957;51.608;6.916;2023-04-01T08:56:39;6.00;;;5.50;;
15712;SDS011;7957;51.608;6.916;2023-04-01T08:59:13;5.33;;;4.90;;
15712;SDS011;7957;51.608;6.916;2023-04-01T09:02:02;6.10;;;5.60;;
15712;SDS011;7957;51.608;6.916;2023-04-01T09:08:09;6.50;;;5.90;;
15712;SDS011;7957;51.608;6.916;2023-04-01T09:11:03;6.70;;;6.20;;
15712;SDS011;7957;51.608;6.916;2023-04-01T09:13:40;6.00;;;5.50;;
15712;SDS011;7957;51.608;6.916;2023-04-01T09:16:18;6.47;;;5.90;;
15712;SDS011;7957;51.608;6.916;2023-04-01T09:25:08;6.70;;;6.10;;
15712;SDS011;7957;51.608;6.916;2023-04-01T09:27:52;6.63;;;6.07;;
15712;SDS011;7957;51.608;6.916;2023-04-01T09:30:32;7.27;;;6.67;;
15712;SDS011;7957;51.608;6.916;2023-04-01T09:33:17;6.97;;;6.37;;
15712;SDS011;7957;51.608;6.916;2023-04-01T09:36:26;6.33;;;5.83;;
15712;SDS011;7957;51.608;6.916;2023-04-01T09:39:13;6.30;;;5.80;;
15712;SDS011;7957;51.608;6.916;2023-04-01T09:42:03;6.50;;;6.00;;
15712;SDS011;7957;51.608;6.916;2023-04-01T09:44:40;7.00;;;6.40;;
15712;SDS011;7957;51.608;6.916;2023-04-01T09:47:16;6.30;;;5.80;;
15712;SDS011;7957;51.608;6.916;2023-04-01T09:50:00;6.47;;;5.97;;
15712;SDS011;7957;51.608;6.916;2023-04-01T09:52:55;6.10;;;5.60;;
15712;SDS011;7957;51.608;6.916;2023-04-01T09:55:49;6.57;;;6.07;;
15712;SDS011;7957;51.608;6.916;2023-04-01T09:58:51;6.73;;;6.13;;
15712;SDS011;7957;51.608;6.916;2023-04-01T10:01:57;6.47;;;5.87;;
15712;SDS011;7957;51.608;6.916;2023-04-01T10:05:12;6.30;;;5.80;;
15712;SDS011;7957;51.608;6.916;2023-04-01T10:08:10;6.63;;;6.03;;
15712;SDS011;7957;51.608;6.916;2023-04-01T10:11:02;6.30;;;5.77;;
15712;SDS011;7957;51.608;6.916;2023-04-01T10:19:58;6.20;;;5.70;;
15712;SDS011;7957;51.608;6.916;2023-04-01T10:22:43;6.23;;;5.73;;
15712;SDS011;7957;51.608;6.916;2023-04-01T10:25:39;5.60;;;5.13;;
15712;SDS011;7957;51.608;6.916;2023-04-01T10:28:36;6.30;;;5.80;;
15712;SDS011;7957;51.608;6.916;2023-04-01T10:34:31;6.10;;;5.27;;
15712;SDS011;7957;51.608;6.916;2023-04-01T10:37:41;6.00;;;5.50;;
15712;SDS011;7957;51.608;6.916;2023-04-01T10:40:39;5.50;;;5.07;;
15712;SDS011;7957;51.608;6.916;2023-04-01T10:43:34;5.90;;;5.40;;
15712;SDS011;7957;51.608;6.916;2023-04-01T10:46:30;5.50;;;5.10;;
15712;SDS011;7957;51.608;6.916;2023-04-01T10:52:27;5.70;;;5.20;;
15712;SDS011;7957;51.608;6.916;2023-04-01T10:55:35;5.40;;;4.90;;
15712;SDS011;7957;51.608;6.916;2023-04-01T11:10:55;5.10;;;4.60;;
15712;SDS011;7957;51.608;6.916;2023-04-01T11:16:54;5.60;;;5.10;;
15712;SDS011;7957;51.608;6.916;2023-04-01T11:20:07;4.83;;;4.37;;
15712;SDS011;7957;51.608;6.916;2023-04-01T11:23:02;4.90;;;4.50;;
15712;SDS011;7957;51.608;6.916;2023-04-01T11:32:07;5.87;;;4.73;;
15712;SDS011;7957;51.608;6.916;2023-04-01T11:37:49;5.60;;;5.10;;
15712;SDS011;7957;51.608;6.916;2023-04-01T11:40:26;5.60;;;5.10;;
15712;SDS011;7957;51.608;6.916;2023-04-01T11:43:01;6.43;;;5.33;;
15712;SDS011;7957;51.608;6.916;2023-04-01T11:45:35;7.07;;;6.37;;
15712;SDS011;7957;51.608;6.916;2023-04-01T11:48:13;6.17;;;5.43;;
15712;SDS011;7957;51.608;6.916;2023-04-01T11:51:01;6.30;;;5.80;;
15712;SDS011;7957;51.608;6.916;2023-04-01T11:53:47;6.40;;;5.80;;
15712;SDS011;7957;51.608;6.916;2023-04-01T11:56:28;6.70;;;6.00;;
15712;SDS011;7957;51.608;6.916;2023-04-01T12:02:06;6.73;;;6.00;;
15712;SDS011;7957;51.608;6.916;2023-04-01T12:04:53;6.27;;;5.67;;
15712;SDS011;7957;51.608;6.916;2023-04-01T12:07:32;6.47;;;5.80;;
15712;SDS011;7957;51.608;6.916;2023-04-01T12:10:15;6.33;;;5.73;;
15712;SDS011;7957;51.608;6.916;2023-04-01T12:12:46;6.47;;;5.87;;
15712;SDS011;7957;51.608;6.916;2023-04-01T12:15:26;6.50;;;5.90;;
15712;SDS011;7957;51.608;6.916;2023-04-01T12:18:00;7.07;;;6.40;;
15712;SDS011;7957;51.608;6.916;2023-04-01T12:20:39;7.20;;;6.50;;
15712;SDS011;7957;51.608;6.916;2023-04-01T12:23:15;7.17;;;6.33;;
15712;SDS011;7957;51.608;6.916;2023-04-01T12:26:04;6.20;;;5.57;;
15712;SDS011;7957;51.608;6.916;2023-04-01T12:28:46;6.90;;;6.30;;
15712;SDS011;7957;51.608;6.916;2023-04-01T12:31:29;6.60;;;6.00;;
15712;SDS011;7957;51.608;6.916;2023-04-01T12:37:18;6.40;;;5.80;;
15712;SDS011;7957;51.608;6.916;2023-04-01T12:39:59;6.90;;;6.20;;
15712;SDS011;7957;51.608;6.916;2023-04-01T12:42:58;6.67;;;6.07;;
15712;SDS011;7957;51.608;6.916;2023-04-01T12:45:32;6.53;;;5.93;;
15712;SDS011;7957;51.608;6.916;2023-04-01T12:48:25;6.80;;;6.10;;
15712;SDS011;7957;51.608;6.916;2023-04-01T12:57:33;6.80;;;6.20;;
15712;SDS011;7957;51.608;6.916;2023-04-01T13:00:30;6.40;;;5.83;;
15712;SDS011;7957;51.608;6.916;2023-04-01T13:06:27;6.47;;;5.50;;
15712;SDS011;7957;51.608;6.916;2023-04-01T13:09:07;6.60;;;6.00;;
15712;SDS011;7957;51.608;6.916;2023-04-01T13:11:50;6.57;;;6.07;;
15712;SDS011;7957;51.608;6.916;2023-04-01T13:17:23;6.03;;;5.53;;
15712;SDS011;7957;51.608;6.916;2023-04-01T13:20:00;6.50;;;5.97;;
15712;SDS011;7957;51.608;6.916;2023-04-01T13:22:38;6.17;;;5.67;;
15712;SDS011;7957;51.608;6.916;2023-04-01T13:25:17;6.13;;;5.63;;
15712;SDS011;7957;51.608;6.916;2023-04-01T13:27:54;6.10;;;5.60;;
15712;SDS011;7957;51.608;6.916;2023-04-01T13:30:27;6.03;;;5.43;;
15712;SDS011;7957;51.608;6.916;2023-04-01T13:33:01;6.27;;;5.67;;
15712;SDS011;7957;51.608;6.916;2023-04-01T13:35:39;5.83;;;5.33;;
15712;SDS011;7957;51.608;6.916;2023-04-01T13:38:20;5.97;;;5.47;;
15712;SDS011;7957;51.608;6.916;2023-04-01T13:41:12;6.27;;;5.67;;
15712;SDS011;7957;51.608;6.916;2023-04-01T13:43:51;6.20;;;5.70;;
15712;SDS011;7957;51.608;6.916;2023-04-01T13:46:33;5.67;;;5.17;;
15712;SDS011;7957;51.608;6.916;2023-04-01T13:52:18;5.60;;;5.10;;
15712;SDS011;7957;51.608;6.916;2023-04-01T13:55:20;5.40;;;5.00;;
15712;SDS011;7957;51.608;6.916;2023-04-01T13:58:07;5.40;;;4.90;;
15712;SDS011;7957;51.608;6.916;2023-04-01T14:00:51;5.67;;;5.17;;
15712;SDS011;7957;51.608;6.916;2023-04-01T14:03:37;5.43;;;4.93;;
15712;SDS011;7957;51.608;6.916;2023-04-01T14:06:27;5.60;;;5.20;;
15712;SDS011;7957;51.608;6.916;2023-04-01T14:12:11;5.83;;;5.33;;
15712;SDS011;7957;51.608;6.916;2023-04-01T14:14:50;6.13;;;5.63;;
15712;SDS011;7957;51.608;6.916;2023-04-01T14:17:28;6.20;;;5.70;;
15712;SDS011;7957;51.608;6.916;2023-04-01T14:20:10;6.27;;;5.67;;
15712;SDS011;7957;51.608;6.916;2023-04-01T14:23:23;6.37;;;5.77;;
15712;SDS011;7957;51.608;6.916;2023-04-01T14:26:27;7.17;;;6.47;;
15712;SDS011;7957;51.608;6.916;2023-04-01T14:29:05;7.17;;;6.57;;
15712;SDS011;7957;51.608;6.916;2023-04-01T14:31:55;7.37;;;6.77;;
15712;SDS011;7957;51.608;6.916;2023-04-01T14:34:36;7.97;;;7.37;;
15712;SDS011;7957;51.608;6.916;2023-04-01T14:37:12;7.33;;;6.73;;
15712;SDS011;7957;51.608;6.916;2023-04-01T14:46:06;7.40;;;6.70;;
15712;SDS011;7957;51.608;6.916;2023-04-01T14:48:48;7.87;;;7.27;;
15712;SDS011;7957;51.608;6.916;2023-04-01T14:51:18;6.80;;;6.20;;
15712;SDS011;7957;51.608;6.916;2023-04-01T14:53:56;8.10;;;7.40;;
15712;SDS011;7957;51.608;6.916;2023-04-01T14:56:35;7.73;;;7.03;;
15712;SDS011;7957;51.608;6.916;2023-04-01T14:59:04;8.87;;;8.00;;
15712;SDS011;7957;51.608;6.916;2023-04-01T15:01:38;8.10;;;7.40;;
15712;SDS011;7957;51.608;6.916;2023-04-01T15:04:23;8.13;;;7.37;;
15712;SDS011;7957;51.608;6.916;2023-04-01T15:07:06;8.37;;;7.57;;
15712;SDS011;7957;51.608;6.916;2023-04-01T15:09:48;8.47;;;7.67;;
15712;SDS011;7957;51.608;6.916;2023-04-01T15:12:26;8.23;;;7.53;;
15712;SDS011;7957;51.608;6.916;2023-04-01T15:15:03;8.03;;;7.43;;
15712;SDS011;7957;51.608;6.916;2023-04-01T15:17:58;7.70;;;7.00;;
15712;SDS011;7957;51.608;6.916;2023-04-01T15:20:36;7.43;;;6.83;;
15712;SDS011;7957;51.608;6.916;2023-04-01T15:23:34;6.37;;;5.83;;
15712;SDS011;7957;51.608;6.916;2023-04-01T15:26:17;6.33;;;5.83;;
15712;SDS011;7957;51.608;6.916;2023-04-01T15:28:57;7.13;;;6.60;;
15712;SDS011;7957;51.608;6.916;2023-04-01T15:31:37;6.83;;;6.33;;
15712;SDS011;7957;51.608;6.916;2023-04-01T15:34:20;6.53;;;6.00;;
15712;SDS011;7957;51.608;6.916;2023-04-01T15:36:56;6.63;;;6.13;;
15712;SDS011;7957;51.608;6.916;2023-04-01T15:39:30;6.63;;;5.90;;
15712;SDS011;7957;51.608;6.916;2023-04-01T15:42:12;6.20;;;5.70;;
15712;SDS011;7957;51.608;6.916;2023-04-01T15:44:57;6.47;;;5.97;;
15712;SDS011;7957;51.608;6.916;2023-04-01T15:47:44;6.27;;;5.73;;
15712;SDS011;7957;51.608;6.916;2023-04-01T15:50:35;6.67;;;6.10;;
15712;SDS011;7957;51.608;6.916;2023-04-01T15:53:18;6.33;;;5.83;;
15712;SDS011;7957;51.608;6.916;2023-04-01T15:55:58;6.23;;;5.73;;
15712;SDS011;7957;51.608;6.916;2023-04-01T15:58:38;6.40;;;5.80;;
15712;SDS011;7957;51.608;6.916;2023-04-01T16:01:19;6.23;;;5.63;;
15712;SDS011;7957;51.608;6.916;2023-04-01T16:03:54;5.90;;;5.40;;
15712;SDS011;7957;51.608;6.916;2023-04-01T16:06:44;5.47;;;5.07;;
15712;SDS011;7957;51.608;6.916;2023-04-01T16:09:37;5.20;;;4.80;;
15712;SDS011;7957;51.608;6.916;2023-04-01T16:12:22;5.60;;;5.10;;
15712;SDS011;7957;51.608;6.916;2023-04-01T16:15:02;5.90;;;5.40;;
15712;SDS011;7957;51.608;6.916;2023-04-01T16:17:54;5.33;;;4.93;;
15712;SDS011;7957;51.608;6.916;2023-04-01T16:20:45;6.33;;;5.73;;
15712;SDS011;7957;51.608;6.916;2023-04-01T16:23:18;5.27;;;4.87;;
15712;SDS011;7957;51.608;6.916;2023-04-01T16:25:51;4.50;;;4.20;;
15712;SDS011;7957;51.608;6.916;2023-04-01T16:28:26;5.30;;;4.80;;
15712;SDS011;7957;51.608;6.916;2023-04-01T16:30:57;5.53;;;5.03;;
15712;SDS011;7957;51.608;6.916;2023-04-01T16:33:30;5.53;;;5.03;;
15712;SDS011;7957;51.608;6.916;2023-04-01T16:36:07;4.53;;;4.20;;
15712;SDS011;7957;51.608;6.916;2023-04-01T16:42:28;4.60;;;4.20;;
15712;SDS011;7957;51.608;6.916;2023-04-01T16:45:08;4.97;;;4.57;;
15712;SDS011;7957;51.608;6.916;2023-04-01T16:47:46;5.13;;;4.73;;
15712;SDS011;7957;51.608;6.916;2023-04-01T16:50:19;5.43;;;4.93;;
15712;SDS011;7957;51.608;6.916;2023-04-01T16:52:53;5.27;;;4.87;;
15712;SDS011;7957;51.608;6.916;2023-04-01T16:55:41;5.50;;;5.00;;
15712;SDS011;7957;51.608;6.916;2023-04-01T16:58:20;5.00;;;4.60;;
15712;SDS011;7957;51.608;6.916;2023-04-01T17:00:51;5.13;;;4.73;;
15712;SDS011;7957;51.608;6.916;2023-04-01T17:03:26;5.23;;;4.83;;
15712;SDS011;7957;51.608;6.916;2023-04-01T17:06:02;4.40;;;4.07;;
15712;SDS011;7957;51.608;6.916;2023-04-01T17:08:44;5.17;;;4.70;;
15712;SDS011;7957;51.608;6.916;2023-04-01T17:11:25;5.00;;;4.60;;
15712;SDS011;7957;51.608;6.916;2023-04-01T17:14:00;4.70;;;4.40;;
15712;SDS011;7957;51.608;6.916;2023-04-01T17:16:44;4.33;;;4.03;;
15712;SDS011;7957;51.608;6.916;2023-04-01T17:19:41;4.43;;;4.03;;
15712;SDS011;7957;51.608;6.916;2023-04-01T17:22:19;4.10;;;3.80;;